sensor_id;sensor_type;location;lat;lon;timestamp;pressure;altitude;pressure_sealevel;temperature;humidity
44825;BME280;30542;47.928;2.138;2023-01-28T00:04:18;101248.38;;;19.65;38.95
44825;BME280;30542;47.928;2.138;2023-01-28T00:09:18;101248.72;;;19.69;38.90
44825;BME280;30542;47.928;2.138;2023-01-28T00:14:18;101235.38;;;19.69;38.74
44825;BME280;30542;47.928;2.138;2023-01-28T00:19:19;101247.91;;;19.68;39.03
44825;BME280;30542;47.928;2.138;2023-01-28T00:24:19;101248.16;;;19.67;38.91
44825;BME280;30542;47.928;2.138;2023-01-28T00:29:20;101245.72;;;19.65;39.22
44825;BME280;30542;47.928;2.138;2023-01-28T00:34:20;101240.97;;;19.67;39.11
44825;BME280;30542;47.928;2.138;2023-01-28T00:39:22;101244.69;;;19.66;39.15
44825;BME280;30542;47.928;2.138;2023-01-28T00:44:22;101239.56;;;19.65;38.87
44825;BME280;30542;47.928;2.138;2023-01-28T00:49:23;101234.22;;;19.65;39.27
44825;BME280;30542;47.928;2.138;2023-01-28T00:54:23;101231.53;;;19.65;39.06
44825;BME280;30542;47.928;2.138;2023-01-28T00:59:23;101237.94;;;19.64;39.08
44825;BME280;30542;47.928;2.138;2023-01-28T01:04:24;101246.22;;;19.62;39.25
44825;BME280;30542;47.928;2.138;2023-01-28T01:09:25;101246.41;;;19.60;38.99
44825;BME280;30542;47.928;2.138;2023-01-28T01:14:26;101257.09;;;19.60;38.99
44825;BME280;30542;47.928;2.138;2023-01-28T01:19:26;101267.78;;;19.60;39.05
44825;BME280;30542;47.928;2.138;2023-01-28T01:24:27;101251.56;;;19.50;38.92
44825;BME280;30542;47.928;2.138;2023-01-28T01:29:33;101279.53;;;19.59;39.33
44825;BME280;30542;47.928;2.138;2023-01-28T01:34:33;101270.13;;;19.57;38.99
44825;BME280;30542;47.928;2.138;2023-01-28T01:39:33;101269.91;;;19.58;39.25
44825;BME280;30542;47.928;2.138;2023-01-28T01:45:12;101272.78;;;19.57;39.16
44825;BME280;30542;47.928;2.138;2023-01-28T01:55:34;101281.06;;;19.55;38.92
44825;BME280;30542;47.928;2.138;2023-01-28T02:00:38;101266.53;;;19.51;38.84
44825;BME280;30542;47.928;2.138;2023-01-28T02:05:39;101267.59;;;19.50;39.14
44825;BME280;30542;47.928;2.138;2023-01-28T02:10:39;101264.47;;;19.53;38.93
44825;BME280;30542;47.928;2.138;2023-01-28T02:15:41;101277.56;;;19.55;39.24
44825;BME280;30542;47.928;2.138;2023-01-28T02:41:28;101269.81;;;19.53;39.17
44825;BME280;30542;47.928;2.138;2023-01-28T02:57:18;101280.50;;;19.53;39.14
44825;BME280;30542;47.928;2.138;2023-01-28T03:02:43;101279.44;;;19.54;38.92
44825;BME280;30542;47.928;2.138;2023-01-28T03:07:45;101290.13;;;19.54;39.24
44825;BME280;30542;47.928;2.138;2023-01-28T03:12:50;101297.91;;;19.56;38.77
44825;BME280;30542;47.928;2.138;2023-01-28T03:18:18;101302.44;;;19.55;39.27
44825;BME280;30542;47.928;2.138;2023-01-28T03:29:32;101290.03;;;19.49;39.13
44825;BME280;30542;47.928;2.138;2023-01-28T03:34:52;101298.16;;;19.54;39.17
44825;BME280;30542;47.928;2.138;2023-01-28T03:40:12;101308.59;;;19.56;39.02
44825;BME280;30542;47.928;2.138;2023-01-28T03:45:12;101278.66;;;19.42;38.84
44825;BME280;30542;47.928;2.138;2023-01-28T03:50:13;101303.50;;;19.54;39.19
44825;BME280;30542;47.928;2.138;2023-01-28T03:55:14;101304.53;;;19.53;39.20
44825;BME280;30542;47.928;2.138;2023-01-28T04:00:14;101310.44;;;19.55;39.12
44825;BME280;30542;47.928;2.138;2023-01-28T04:05:17;101300.34;;;19.57;38.56
44825;BME280;30542;47.928;2.138;2023-01-28T04:10:19;101301.16;;;19.58;38.95
44825;BME280;30542;47.928;2.138;2023-01-28T04:15:19;101306.03;;;19.61;39.23
44825;BME280;30542;47.928;2.138;2023-01-28T04:20:21;101309.97;;;19.70;38.68
44825;BME280;30542;47.928;2.138;2023-01-28T04:25:21;101317.38;;;19.80;38.62
44825;BME280;30542;47.928;2.138;2023-01-28T04:30:22;101311.66;;;19.88;38.54
44825;BME280;30542;47.928;2.138;2023-01-28T04:35:23;101328.03;;;19.92;38.37
44825;BME280;30542;47.928;2.138;2023-01-28T04:40:23;101321.97;;;19.96;38.48
44825;BME280;30542;47.928;2.138;2023-01-28T04:45:23;101333.00;;;20.00;38.42
44825;BME280;30542;47.928;2.138;2023-01-28T04:50:24;101343.78;;;20.05;38.20
44825;BME280;30542;47.928;2.138;2023-01-28T04:55:25;101322.88;;;20.02;38.42
44825;BME280;30542;47.928;2.138;2023-01-28T05:00:26;101336.66;;;20.10;38.27
44825;BME280;30542;47.928;2.138;2023-01-28T05:05:26;101339.59;;;20.09;38.35
44825;BME280;30542;47.928;2.138;2023-01-28T05:10:27;101336.44;;;20.12;38.26
44825;BME280;30542;47.928;2.138;2023-01-28T05:15:27;101350.16;;;20.16;38.12
44825;BME280;30542;47.928;2.138;2023-01-28T05:20:28;101357.69;;;20.19;38.18
44825;BME280;30542;47.928;2.138;2023-01-28T05:25:28;101357.69;;;20.19;38.10
44825;BME280;30542;47.928;2.138;2023-01-28T05:30:28;101366.03;;;20.22;38.18
44825;BME280;30542;47.928;2.138;2023-01-28T05:35:29;101366.03;;;20.22;37.79
44825;BME280;30542;47.928;2.138;2023-01-28T05:40:29;101372.19;;;20.23;37.90
44825;BME280;30542;47.928;2.138;2023-01-28T05:45:30;101356.78;;;20.13;38.12
44825;BME280;30542;47.928;2.138;2023-01-28T05:50:30;101385.66;;;20.28;37.85
44825;BME280;30542;47.928;2.138;2023-01-28T05:55:30;101388.91;;;20.30;37.68
44825;BME280;30542;47.928;2.138;2023-01-28T06:00:31;101388.66;;;20.31;37.89
44825;BME280;30542;47.928;2.138;2023-01-28T06:05:31;101390.06;;;20.34;37.65
44825;BME280;30542;47.928;2.138;2023-01-28T06:10:31;101386.81;;;20.32;37.55
44825;BME280;30542;47.928;2.138;2023-01-28T06:15:32;101394.94;;;20.37;37.57
44825;BME280;30542;47.928;2.138;2023-01-28T06:20:32;101400.31;;;20.37;37.83
44825;BME280;30542;47.928;2.138;2023-01-28T06:25:33;101401.91;;;20.38;37.73
44825;BME280;30542;47.928;2.138;2023-01-28T06:30:33;101405.16;;;20.40;37.79
44825;BME280;30542;47.928;2.138;2023-01-28T06:35:34;101410.28;;;20.42;37.76
44825;BME280;30542;47.928;2.138;2023-01-28T06:40:34;101421.53;;;20.44;37.84
44825;BME280;30542;47.928;2.138;2023-01-28T06:45:35;101417.84;;;20.45;37.72
44825;BME280;30542;47.928;2.138;2023-01-28T06:50:35;101407.25;;;20.38;37.84
44825;BME280;30542;47.928;2.138;2023-01-28T06:55:35;101423.41;;;20.43;37.81
44825;BME280;30542;47.928;2.138;2023-01-28T07:00:36;101433.66;;;20.46;37.76
44825;BME280;30542;47.928;2.138;2023-01-28T07:05:37;101433.66;;;20.46;37.69
44825;BME280;30542;47.928;2.138;2023-01-28T07:10:38;101430.38;;;20.44;37.42
44825;BME280;30542;47.928;2.138;2023-01-28T07:15:38;101440.44;;;20.49;37.45
44825;BME280;30542;47.928;2.138;2023-01-28T07:20:38;101438.75;;;20.48;37.50
44825;BME280;30542;47.928;2.138;2023-01-28T07:25:39;101430.38;;;20.44;37.33
44825;BME280;30542;47.928;2.138;2023-01-28T07:30:39;101439.69;;;20.53;37.48
44825;BME280;30542;47.928;2.138;2023-01-28T07:35:39;101449.91;;;20.56;37.61
44825;BME280;30542;47.928;2.138;2023-01-28T07:40:40;101448.28;;;20.55;37.78
44825;BME280;30542;47.928;2.138;2023-01-28T07:45:44;101451.78;;;20.56;37.85
44825;BME280;30542;47.928;2.138;2023-01-28T07:50:44;101476.91;;;20.55;38.12
44825;BME280;30542;47.928;2.138;2023-01-28T07:55:47;101469.69;;;20.55;38.12
44825;BME280;30542;47.928;2.138;2023-01-28T08:00:47;101469.13;;;20.53;38.12
44825;BME280;30542;47.928;2.138;2023-01-28T08:05:50;101476.59;;;20.51;38.12
44825;BME280;30542;47.928;2.138;2023-01-28T08:10:52;101485.66;;;20.50;38.08
44825;BME280;30542;47.928;2.138;2023-01-28T08:15:54;101483.25;;;20.49;38.26
44825;BME280;30542;47.928;2.138;2023-01-28T08:20:57;101492.09;;;20.49;37.93
44825;BME280;30542;47.928;2.138;2023-01-28T08:25:58;101484.50;;;20.46;37.82
44825;BME280;30542;47.928;2.138;2023-01-28T08:30:59;101481.00;;;20.46;37.69
44825;BME280;30542;47.928;2.138;2023-01-28T08:36:04;101496.81;;;20.47;37.73
44825;BME280;30542;47.928;2.138;2023-01-28T08:41:04;101492.63;;;20.51;38.01
44825;BME280;30542;47.928;2.138;2023-01-28T08:46:05;101494.03;;;20.54;37.86
44825;BME280;30542;47.928;2.138;2023-01-28T08:51:06;101506.84;;;20.52;38.13
44825;BME280;30542;47.928;2.138;2023-01-28T08:56:07;101517.31;;;20.53;37.93
44825;BME280;30542;47.928;2.138;2023-01-28T09:01:08;101511.97;;;20.53;38.03
44825;BME280;30542;47.928;2.138;2023-01-28T09:06:08;101519.75;;;20.55;38.06
44825;BME280;30542;47.928;2.138;2023-01-28T09:11:09;101514.97;;;20.57;37.94
44825;BME280;30542;47.928;2.138;2023-01-28T09:16:09;101511.25;;;20.58;38.02
44825;BME280;30542;47.928;2.138;2023-01-28T09:21:09;101516.09;;;20.61;38.16
44825;BME280;30542;47.928;2.138;2023-01-28T09:26:10;101519.63;;;20.62;38.37
44825;BME280;30542;47.928;2.138;2023-01-28T09:31:11;101524.97;;;20.62;38.51
44825;BME280;30542;47.928;2.138;2023-01-28T09:36:12;101523.91;;;20.63;38.90
44825;BME280;30542;47.928;2.138;2023-01-28T09:41:23;101534.97;;;20.66;40.63
44825;BME280;30542;47.928;2.138;2023-01-28T09:46:31;101540.06;;;20.68;41.01
44825;BME280;30542;47.928;2.138;2023-01-28T09:51:37;101524.63;;;20.58;40.75
44825;BME280;30542;47.928;2.138;2023-01-28T09:56:42;101544.88;;;20.66;40.64
44825;BME280;30542;47.928;2.138;2023-01-28T10:02:14;101544.03;;;20.65;40.55
44825;BME280;30542;47.928;2.138;2023-01-28T10:07:35;101545.09;;;20.64;40.65
44825;BME280;30542;47.928;2.138;2023-01-28T10:13:03;101548.56;;;20.65;40.75
44825;BME280;30542;47.928;2.138;2023-01-28T10:18:10;101542.88;;;20.61;40.65
44825;BME280;30542;47.928;2.138;2023-01-28T10:28:26;101534.16;;;20.66;40.85
44825;BME280;30542;47.928;2.138;2023-01-28T10:38:29;101533.81;;;20.62;40.93
44825;BME280;30542;47.928;2.138;2023-01-28T10:43:33;101540.06;;;20.68;40.95
44825;BME280;30542;47.928;2.138;2023-01-28T10:48:43;101529.34;;;20.68;40.63
44825;BME280;30542;47.928;2.138;2023-01-28T10:53:45;101526.22;;;20.71;40.90
44825;BME280;30542;47.928;2.138;2023-01-28T10:58:53;101532.13;;;20.73;40.77
44825;BME280;30542;47.928;2.138;2023-01-28T11:03:57;101538.06;;;20.75;41.23
44825;BME280;30542;47.928;2.138;2023-01-28T11:08:58;101526.31;;;20.76;41.13
44825;BME280;30542;47.928;2.138;2023-01-28T11:13:58;101519.31;;;20.75;41.16
44825;BME280;30542;47.928;2.138;2023-01-28T11:19:03;101509.09;;;20.72;40.81
44825;BME280;30542;47.928;2.138;2023-01-28T11:24:14;101520.84;;;20.71;40.96
44825;BME280;30542;47.928;2.138;2023-01-28T11:29:31;101527.28;;;20.70;40.86
44825;BME280;30542;47.928;2.138;2023-01-28T11:34:34;101523.53;;;20.71;40.79
44825;BME280;30542;47.928;2.138;2023-01-28T11:39:34;101531.56;;;20.71;41.01
44825;BME280;30542;47.928;2.138;2023-01-28T11:44:34;101526.44;;;20.69;40.95
44825;BME280;30542;47.928;2.138;2023-01-28T12:00:40;101515.72;;;20.69;41.37
44825;BME280;30542;47.928;2.138;2023-01-28T12:05:50;101511.34;;;20.63;42.35
44825;BME280;30542;47.928;2.138;2023-01-28T12:11:21;101517.84;;;20.67;43.16
44825;BME280;30542;47.928;2.138;2023-01-28T12:43:57;101510.44;;;20.57;45.52
44825;BME280;30542;47.928;2.138;2023-01-28T12:49:07;101516.25;;;20.54;45.64
44825;BME280;30542;47.928;2.138;2023-01-28T12:54:19;101517.19;;;20.48;45.71
44825;BME280;30542;47.928;2.138;2023-01-28T12:59:26;101509.50;;;20.52;45.78
44825;BME280;30542;47.928;2.138;2023-01-28T13:04:36;101506.63;;;20.53;46.12
44825;BME280;30542;47.928;2.138;2023-01-28T13:09:47;101506.03;;;20.51;45.78
44825;BME280;30542;47.928;2.138;2023-01-28T13:14:49;101507.44;;;20.54;45.76
44825;BME280;30542;47.928;2.138;2023-01-28T13:19:50;101510.09;;;20.54;45.53
44825;BME280;30542;47.928;2.138;2023-01-28T13:24:50;101499.50;;;20.47;45.88
44825;BME280;30542;47.928;2.138;2023-01-28T13:30:24;101503.34;;;20.51;45.57
44825;BME280;30542;47.928;2.138;2023-01-28T13:35:34;101519.41;;;20.51;45.72
44825;BME280;30542;47.928;2.138;2023-01-28T13:40:37;101518.59;;;20.51;45.72
44825;BME280;30542;47.928;2.138;2023-01-28T13:45:38;101525.00;;;20.50;45.52
44825;BME280;30542;47.928;2.138;2023-01-28T13:50:41;101526.06;;;20.49;45.46
44825;BME280;30542;47.928;2.138;2023-01-28T13:55:43;101512.34;;;20.33;45.68
44825;BME280;30542;47.928;2.138;2023-01-28T14:17:20;101542.31;;;20.47;45.56
44825;BME280;30542;47.928;2.138;2023-01-28T14:22:24;101526.28;;;20.35;45.24
44825;BME280;30542;47.928;2.138;2023-01-28T14:27:36;101541.28;;;20.48;45.46
44825;BME280;30542;47.928;2.138;2023-01-28T14:32:47;101540.25;;;20.49;45.29
44825;BME280;30542;47.928;2.138;2023-01-28T14:37:50;101541.50;;;20.47;45.17
44825;BME280;30542;47.928;2.138;2023-01-28T14:42:53;101546.97;;;20.40;45.05
44825;BME280;30542;47.928;2.138;2023-01-28T14:48:05;101561.50;;;20.44;45.11
44825;BME280;30542;47.928;2.138;2023-01-28T14:58:36;101574.09;;;20.32;45.07
44825;BME280;30542;47.928;2.138;2023-01-28T15:03:44;101577.81;;;20.31;44.99
44825;BME280;30542;47.928;2.138;2023-01-28T15:08:46;101576.31;;;20.35;45.22
44825;BME280;30542;47.928;2.138;2023-01-28T15:13:48;101571.75;;;20.35;45.03
44825;BME280;30542;47.928;2.138;2023-01-28T15:18:50;101574.78;;;20.39;44.88
44825;BME280;30542;47.928;2.138;2023-01-28T15:23:59;101564.22;;;20.32;44.98
44825;BME280;30542;47.928;2.138;2023-01-28T15:28:59;101582.59;;;20.41;44.97
44825;BME280;30542;47.928;2.138;2023-01-28T15:39:01;101598.16;;;20.44;44.90
44825;BME280;30542;47.928;2.138;2023-01-28T15:44:01;101593.88;;;20.43;44.71
44825;BME280;30542;47.928;2.138;2023-01-28T15:49:03;101594.69;;;20.43;45.03
44825;BME280;30542;47.928;2.138;2023-01-28T15:54:08;101570.75;;;20.25;45.04
44825;BME280;30542;47.928;2.138;2023-01-28T16:04:26;101607.34;;;20.48;44.73
44825;BME280;30542;47.928;2.138;2023-01-28T16:09:29;101608.78;;;20.50;44.80
44825;BME280;30542;47.928;2.138;2023-01-28T16:14:42;101598.97;;;20.44;45.12
44825;BME280;30542;47.928;2.138;2023-01-28T16:19:48;101599.56;;;20.46;45.45
44825;BME280;30542;47.928;2.138;2023-01-28T16:24:51;101596.78;;;20.41;46.00
44825;BME280;30542;47.928;2.138;2023-01-28T16:29:52;101605.84;;;20.40;46.45
44825;BME280;30542;47.928;2.138;2023-01-28T16:34:53;101598.88;;;20.39;46.05
44825;BME280;30542;47.928;2.138;2023-01-28T16:39:53;101591.31;;;20.36;45.83
44825;BME280;30542;47.928;2.138;2023-01-28T16:44:54;101593.78;;;20.38;45.92
44825;BME280;30542;47.928;2.138;2023-01-28T16:49:54;101598.31;;;20.37;45.77
44825;BME280;30542;47.928;2.138;2023-01-28T16:54:54;101617.03;;;20.37;45.76
44825;BME280;30542;47.928;2.138;2023-01-28T16:59:55;101617.03;;;20.37;45.59
44825;BME280;30542;47.928;2.138;2023-01-28T17:04:55;101634.72;;;20.38;45.26
44825;BME280;30542;47.928;2.138;2023-01-28T17:09:55;101631.44;;;20.36;45.31
44825;BME280;30542;47.928;2.138;2023-01-28T17:14:56;101651.81;;;20.37;45.23
44825;BME280;30542;47.928;2.138;2023-01-28T17:19:56;101662.53;;;20.37;44.87
44825;BME280;30542;47.928;2.138;2023-01-28T17:24:56;101676.47;;;20.39;44.63
44825;BME280;30542;47.928;2.138;2023-01-28T17:29:57;101678.34;;;20.39;44.45
44825;BME280;30542;47.928;2.138;2023-01-28T17:34:57;101685.09;;;20.41;44.42
44825;BME280;30542;47.928;2.138;2023-01-28T17:39:57;101685.81;;;20.36;45.22
44825;BME280;30542;47.928;2.138;2023-01-28T17:44:58;101693.16;;;20.53;45.40
44825;BME280;30542;47.928;2.138;2023-01-28T17:50:02;101699.19;;;20.60;45.62
44825;BME280;30542;47.928;2.138;2023-01-28T17:55:03;101701.41;;;20.63;45.78
44825;BME280;30542;47.928;2.138;2023-01-28T18:00:04;101698.47;;;20.65;45.40
44825;BME280;30542;47.928;2.138;2023-01-28T18:05:05;101712.56;;;20.72;45.53
44825;BME280;30542;47.928;2.138;2023-01-28T18:10:07;101713.72;;;20.76;44.97
44825;BME280;30542;47.928;2.138;2023-01-28T18:15:08;101711.16;;;20.81;45.33
44825;BME280;30542;47.928;2.138;2023-01-28T18:20:09;101716.16;;;20.89;44.82
44825;BME280;30542;47.928;2.138;2023-01-28T18:25:15;101698.47;;;20.88;44.57
44825;BME280;30542;47.928;2.138;2023-01-28T18:30:15;101701.59;;;20.97;44.78
44825;BME280;30542;47.928;2.138;2023-01-28T18:35:17;101701.47;;;21.03;43.95
44825;BME280;30542;47.928;2.138;2023-01-28T18:40:17;101695.84;;;21.05;43.63
44825;BME280;30542;47.928;2.138;2023-01-28T18:45:18;101697.13;;;21.02;43.54
44825;BME280;30542;47.928;2.138;2023-01-28T18:50:18;101683.19;;;21.00;43.54
44825;BME280;30542;47.928;2.138;2023-01-28T18:55:19;101682.50;;;20.93;43.58
44825;BME280;30542;47.928;2.138;2023-01-28T19:00:20;101691.59;;;20.92;43.49
44825;BME280;30542;47.928;2.138;2023-01-28T19:05:20;101702.53;;;20.91;43.48
44825;BME280;30542;47.928;2.138;2023-01-28T19:10:21;101714.53;;;20.88;43.63
44825;BME280;30542;47.928;2.138;2023-01-28T19:15:23;101724.34;;;20.82;43.39
44825;BME280;30542;47.928;2.138;2023-01-28T19:20:23;101719.34;;;20.74;43.40
44825;BME280;30542;47.928;2.138;2023-01-28T19:25:24;101736.78;;;20.77;43.22
44825;BME280;30542;47.928;2.138;2023-01-28T19:30:24;101725.97;;;20.72;43.10
44825;BME280;30542;47.928;2.138;2023-01-28T19:35:24;101723.53;;;20.70;43.18
44825;BME280;30542;47.928;2.138;2023-01-28T19:40:26;101723.03;;;20.73;43.15
44825;BME280;30542;47.928;2.138;2023-01-28T19:45:26;101727.59;;;20.73;42.95
44825;BME280;30542;47.928;2.138;2023-01-28T19:50:27;101735.25;;;20.69;43.14
44825;BME280;30542;47.928;2.138;2023-01-28T19:55:28;101747.63;;;20.70;43.26
44825;BME280;30542;47.928;2.138;2023-01-28T20:00:28;101725.97;;;20.60;43.55
44825;BME280;30542;47.928;2.138;2023-01-28T20:05:29;101745.75;;;20.71;44.53
44825;BME280;30542;47.928;2.138;2023-01-28T20:10:30;101743.53;;;20.91;44.71
44825;BME280;30542;47.928;2.138;2023-01-28T20:15:31;101740.50;;;20.99;45.34
44825;BME280;30542;47.928;2.138;2023-01-28T20:20:31;101748.25;;;21.13;45.66
44825;BME280;30542;47.928;2.138;2023-01-28T20:25:31;101742.63;;;21.26;45.90
44825;BME280;30542;47.928;2.138;2023-01-28T20:30:32;101744.84;;;21.41;46.20
44825;BME280;30542;47.928;2.138;2023-01-28T20:35:33;101754.22;;;21.55;46.29
44825;BME280;30542;47.928;2.138;2023-01-28T20:40:35;101753.03;;;21.63;46.33
44825;BME280;30542;47.928;2.138;2023-01-28T20:45:36;101752.16;;;21.74;46.34
44825;BME280;30542;47.928;2.138;2023-01-28T20:50:36;101759.00;;;21.81;46.24
44825;BME280;30542;47.928;2.138;2023-01-28T20:55:37;101764.22;;;21.88;43.60
44825;BME280;30542;47.928;2.138;2023-01-28T21:00:37;101792.47;;;21.79;42.48
44825;BME280;30542;47.928;2.138;2023-01-28T21:05:38;101798.69;;;21.68;42.24
44825;BME280;30542;47.928;2.138;2023-01-28T21:10:38;101790.47;;;21.57;42.30
44825;BME280;30542;47.928;2.138;2023-01-28T21:15:40;101791.06;;;21.48;42.11
44825;BME280;30542;47.928;2.138;2023-01-28T21:20:40;101792.84;;;21.42;41.89
44825;BME280;30542;47.928;2.138;2023-01-28T21:25:41;101781.19;;;21.25;42.23
44825;BME280;30542;47.928;2.138;2023-01-28T21:30:42;101808.72;;;21.32;42.65
44825;BME280;30542;47.928;2.138;2023-01-28T21:35:42;101810.44;;;21.26;42.70
44825;BME280;30542;47.928;2.138;2023-01-28T21:40:43;101814.63;;;21.22;42.74
44825;BME280;30542;47.928;2.138;2023-01-28T21:45:43;101809.41;;;21.16;42.72
44825;BME280;30542;47.928;2.138;2023-01-28T21:50:46;101801.84;;;21.13;43.05
44825;BME280;30542;47.928;2.138;2023-01-28T21:56:07;101807.91;;;21.08;42.88
44825;BME280;30542;47.928;2.138;2023-01-28T22:01:08;101809.19;;;21.05;42.92
44825;BME280;30542;47.928;2.138;2023-01-28T22:06:08;101808.84;;;21.02;42.78
44825;BME280;30542;47.928;2.138;2023-01-28T22:11:09;101812.81;;;20.99;42.94
44825;BME280;30542;47.928;2.138;2023-01-28T22:16:09;101811.06;;;20.93;43.02
44825;BME280;30542;47.928;2.138;2023-01-28T22:21:10;101783.09;;;20.77;43.39
44825;BME280;30542;47.928;2.138;2023-01-28T22:26:11;101800.00;;;20.78;43.67
44825;BME280;30542;47.928;2.138;2023-01-28T22:31:13;101793.00;;;20.65;43.66
44825;BME280;30542;47.928;2.138;2023-01-28T22:36:15;101809.91;;;20.66;43.69
44825;BME280;30542;47.928;2.138;2023-01-28T22:41:17;101801.97;;;20.59;43.84
44825;BME280;30542;47.928;2.138;2023-01-28T22:46:22;101800.81;;;20.55;43.80
44825;BME280;30542;47.928;2.138;2023-01-28T22:51:29;101787.59;;;20.42;43.65
44825;BME280;30542;47.928;2.138;2023-01-28T22:56:30;101789.84;;;20.45;43.88
44825;BME280;30542;47.928;2.138;2023-01-28T23:01:30;101799.56;;;20.39;44.07
44825;BME280;30542;47.928;2.138;2023-01-28T23:06:31;101787.13;;;20.33;43.74
44825;BME280;30542;47.928;2.138;2023-01-28T23:11:31;101783.28;;;20.29;43.84
44825;BME280;30542;47.928;2.138;2023-01-28T23:16:32;101783.38;;;20.22;43.70
44825;BME280;30542;47.928;2.138;2023-01-28T23:21:50;101773.59;;;20.16;43.54
44825;BME280;30542;47.928;2.138;2023-01-28T23:27:10;101772.88;;;20.09;43.86
44825;BME280;30542;47.928;2.138;2023-01-28T23:32:10;101764.81;;;19.97;43.75
44825;BME280;30542;47.928;2.138;2023-01-28T23:37:11;101772.28;;;19.95;44.05
44825;BME280;30542;47.928;2.138;2023-01-28T23:42:17;101766.78;;;19.90;43.64
44825;BME280;30542;47.928;2.138;2023-01-28T23:47:18;101764.22;;;19.83;43.56
44825;BME280;30542;47.928;2.138;2023-01-28T23:52:18;101762.66;;;19.76;43.94
44825;BME280;30542;47.928;2.138;2023-01-28T23:57:19;101761.47;;;19.72;43.86
